Terminal Aerodrome Forecast
Issued by NWS

Current Version | Previous Version | Graphics & Text | Print | Product List | Glossary On
Versions: 1 2 3 4 5 6 7 8 9 10 11 12 13 14 15 16 17 18 19 20 21 22 23 24 25 26 27
000
FTUS41 KRLX 251703 AAC
TAFCKB
TAF AMD
KCKB 251703Z 2517/2612 25012G23KT 6SM -SHRA BR BKN008 BKN025
     FM251730 26010G16KT P6SM SCT008 OVC025
     FM251800 24010G19KT P6SM BKN035
     FM251900 25012G23KT P6SM BKN040=

USA.gov is the U.S. government's official web portal to all federal, state and local government web resources and services.